createdAt,value
2019-04-14T00:02:40.356Z,10.63
2019-04-14T00:05:14.929Z,10.80
2019-04-14T00:07:45.327Z,11.87
2019-04-14T00:10:18.231Z,11.17
2019-04-14T00:12:49.350Z,10.03
2019-04-14T00:15:30.918Z,10.37
2019-04-14T00:17:54.606Z,11.60
2019-04-14T00:20:27.190Z,11.33
2019-04-14T00:22:58.235Z,11.10
2019-04-14T00:25:30.282Z,11.83
2019-04-14T00:28:00.867Z,12.07
2019-04-14T00:30:31.745Z,10.90
2019-04-14T00:33:04.464Z,11.90
2019-04-14T00:35:42.685Z,11.20
2019-04-14T00:38:19.786Z,11.30
2019-04-14T00:41:05.567Z,10.03
2019-04-14T00:43:45.840Z,11.10
2019-04-14T00:46:21.157Z,10.63
2019-04-14T00:48:52.339Z,10.97
2019-04-14T00:51:24.405Z,11.13
2019-04-14T00:53:55.766Z,10.17
2019-04-14T00:56:27.880Z,10.37
2019-04-14T00:58:58.939Z,11.00
2019-04-14T01:01:30.832Z,10.60
2019-04-14T01:04:01.315Z,10.67
2019-04-14T01:06:32.198Z,9.73
2019-04-14T01:09:04.279Z,11.30
2019-04-14T01:11:35.863Z,10.37
2019-04-14T01:14:07.935Z,9.67
2019-04-14T01:16:39.055Z,10.60
2019-04-14T01:19:11.199Z,11.03
2019-04-14T01:21:43.507Z,10.40
2019-04-14T01:24:14.683Z,12.00
2019-04-14T01:26:46.370Z,9.43
2019-04-14T01:29:18.695Z,11.13
2019-04-14T01:31:49.767Z,10.83
2019-04-14T01:34:21.701Z,10.17
2019-04-14T01:36:53.930Z,10.63
2019-04-14T01:39:26.409Z,10.07
2019-04-14T01:41:58.452Z,9.70
2019-04-14T01:44:30.611Z,9.83
2019-04-14T01:47:03.019Z,10.33
2019-04-14T01:49:35.358Z,10.10
2019-04-14T01:52:32.003Z,11.43
2019-04-14T01:55:39.838Z,10.20
2019-04-14T01:58:19.380Z,10.00
2019-04-14T02:01:19.568Z,10.70
2019-04-14T02:03:51.911Z,9.53
2019-04-14T02:06:24.448Z,10.17
2019-04-14T02:08:56.825Z,10.67
2019-04-14T02:11:29.194Z,10.10
2019-04-14T02:14:01.602Z,10.37
2019-04-14T02:16:39.485Z,10.33
2019-04-14T02:19:06.622Z,10.57
2019-04-14T02:21:37.128Z,10.07
2019-04-14T02:24:09.192Z,9.90
2019-04-14T02:26:39.655Z,10.33
2019-04-14T02:29:10.452Z,10.03
2019-04-14T02:32:11.445Z,9.93
2019-04-14T02:34:41.728Z,9.97
2019-04-14T02:37:24.452Z,9.83
2019-04-14T02:39:53.589Z,9.23
2019-04-14T02:42:30.457Z,10.00
2019-04-14T02:44:55.345Z,9.80
2019-04-14T02:50:00.816Z,9.20
2019-04-14T02:52:29.929Z,9.33
2019-04-14T02:54:59.885Z,9.73
2019-04-14T02:57:47.562Z,9.47
2019-04-14T03:00:07.844Z,9.53
2019-04-14T03:02:38.838Z,9.27
2019-04-14T03:05:12.790Z,9.00
2019-04-14T03:07:45.867Z,9.50
2019-04-14T03:10:22.403Z,8.97
2019-04-14T03:12:46.541Z,9.93
2019-04-14T03:15:29.578Z,8.90
2019-04-14T03:18:31.845Z,9.77
2019-04-14T03:21:30.625Z,9.27
2019-04-14T03:24:15.950Z,9.33
2019-04-14T03:32:32.306Z,9.53
2019-04-14T03:34:54.667Z,9.57
2019-04-14T03:39:46.634Z,8.93
2019-04-14T03:45:00.478Z,8.93
2019-04-14T03:50:00.006Z,9.67
2019-04-14T03:52:37.695Z,8.70
2019-04-14T03:54:58.463Z,9.20
2019-04-14T03:57:10.480Z,10.50
2019-04-14T03:59:41.611Z,9.27
2019-04-14T04:02:13.893Z,9.37
2019-04-14T04:04:44.998Z,9.20
2019-04-14T04:07:17.037Z,9.23
2019-04-14T04:10:09.979Z,9.00
2019-04-14T04:12:42.176Z,8.57
2019-04-14T04:15:12.621Z,8.63
2019-04-14T04:18:05.054Z,9.23
2019-04-14T04:20:54.484Z,9.00
2019-04-14T04:23:53.359Z,9.30
2019-04-14T04:26:52.191Z,8.80
2019-04-14T04:29:44.319Z,9.23
2019-04-14T04:32:36.962Z,8.63
2019-04-14T04:35:30.951Z,9.37
2019-04-14T04:38:18.242Z,8.63
2019-04-14T04:40:49.236Z,9.67
2019-04-14T04:43:21.138Z,9.73
2019-04-14T04:45:52.126Z,9.23
2019-04-14T04:48:24.106Z,9.33
2019-04-14T04:50:56.263Z,9.77
2019-04-14T04:53:27.397Z,9.90
2019-04-14T04:55:59.276Z,8.63
2019-04-14T04:58:30.515Z,9.67
2019-04-14T05:01:01.480Z,9.53
2019-04-14T05:03:31.898Z,9.77
2019-04-14T05:06:39.383Z,9.07
2019-04-14T05:09:18.615Z,9.90
2019-04-14T05:12:08.957Z,9.17
2019-04-14T05:14:47.972Z,8.80
2019-04-14T05:17:19.612Z,8.90
2019-04-14T05:19:51.818Z,8.53
2019-04-14T05:22:22.911Z,9.17
2019-04-14T05:24:53.224Z,8.80
2019-04-14T05:27:25.323Z,9.13
2019-04-14T05:29:58.040Z,9.60
2019-04-14T05:32:28.974Z,9.03
2019-04-14T05:35:00.853Z,8.40
2019-04-14T05:37:33.293Z,9.60
2019-04-14T05:40:05.892Z,8.80
2019-04-14T05:47:02.174Z,9.07
2019-04-14T05:49:38.934Z,9.67
2019-04-14T05:52:05.702Z,9.27
2019-04-14T05:54:36.727Z,8.83
2019-04-14T05:57:08.810Z,9.10
2019-04-14T05:59:40.362Z,8.53
2019-04-14T06:02:11.559Z,8.97
2019-04-14T06:04:43.879Z,8.80
2019-04-14T06:07:15.099Z,9.17
2019-04-14T06:09:46.271Z,9.37
2019-04-14T06:12:16.708Z,9.20
2019-04-14T06:14:47.707Z,9.27
2019-04-14T06:17:18.870Z,9.77
2019-04-14T06:19:49.323Z,9.23
2019-04-14T06:22:19.547Z,9.20
2019-04-14T06:24:49.766Z,8.87
2019-04-14T06:27:20.130Z,8.90
2019-04-14T06:29:52.767Z,8.87
2019-04-14T06:32:32.619Z,9.23
2019-04-14T06:35:21.518Z,9.57
2019-04-14T06:37:56.190Z,9.23
2019-04-14T06:40:29.411Z,9.20
2019-04-14T06:43:00.616Z,10.40
2019-04-14T06:45:32.195Z,11.00
2019-04-14T06:48:03.215Z,11.13
2019-04-14T06:50:34.403Z,10.70
2019-04-14T06:53:05.611Z,10.20
2019-04-14T06:55:36.871Z,10.57
2019-04-14T06:58:08.002Z,10.30
2019-04-14T07:00:39.571Z,9.97
2019-04-14T07:03:10.699Z,9.73
2019-04-14T07:05:41.887Z,9.40
2019-04-14T07:08:12.223Z,10.20
2019-04-14T07:10:43.251Z,9.73
2019-04-14T07:13:14.707Z,9.10
2019-04-14T07:15:45.938Z,10.63
2019-04-14T07:18:17.139Z,9.27
2019-04-14T07:20:48.344Z,9.37
2019-04-14T07:23:19.446Z,9.50
2019-04-14T07:25:50.619Z,9.00
2019-04-14T07:28:21.818Z,9.23
2019-04-14T07:31:14.633Z,8.70
2019-04-14T07:34:03.394Z,9.47
2019-04-14T07:36:59.292Z,9.03
2019-04-14T07:39:49.546Z,8.63
2019-04-14T07:42:29.923Z,8.83
2019-04-14T07:45:18.595Z,7.73
2019-04-14T07:47:56.878Z,8.13
2019-04-14T07:50:34.380Z,8.17
2019-04-14T07:53:42.885Z,8.50
2019-04-14T07:56:38.631Z,8.87
2019-04-14T07:59:15.603Z,7.97
2019-04-14T08:01:53.139Z,8.20
2019-04-14T08:04:29.716Z,8.30
2019-04-14T08:07:01.127Z,7.87
2019-04-14T08:09:33.363Z,8.17
2019-04-14T08:12:03.814Z,7.80
2019-04-14T08:14:34.928Z,8.07
2019-04-14T08:17:05.885Z,7.60
2019-04-14T08:19:37.228Z,7.73
2019-04-14T08:22:07.860Z,7.73
2019-04-14T08:24:38.943Z,8.27
2019-04-14T08:27:10.423Z,7.53
2019-04-14T08:29:41.650Z,7.27
2019-04-14T08:32:13.034Z,7.10
2019-04-14T08:34:44.332Z,7.43
2019-04-14T08:37:14.743Z,7.40
2019-04-14T08:39:45.866Z,7.60
2019-04-14T08:42:40.278Z,7.30
2019-04-14T08:45:17.687Z,8.00
2019-04-14T08:48:26.136Z,7.00
2019-04-14T08:51:14.219Z,7.40
2019-04-14T08:53:49.591Z,7.33
2019-04-14T08:56:39.163Z,7.10
2019-04-14T08:59:35.087Z,7.23
2019-04-14T09:02:17.327Z,7.27
2019-04-14T09:04:55.412Z,7.17
2019-04-14T09:07:32.999Z,7.60
2019-04-14T09:12:52.855Z,6.57
2019-04-14T09:15:24.363Z,6.93
2019-04-14T09:17:55.633Z,7.10
2019-04-14T09:20:26.747Z,7.57
2019-04-14T09:22:57.876Z,7.30
2019-04-14T09:25:28.366Z,6.77
2019-04-14T09:27:59.484Z,7.50
2019-04-14T09:30:30.716Z,6.77
2019-04-14T09:33:02.291Z,8.40
2019-04-14T09:35:32.719Z,7.73
2019-04-14T09:38:03.776Z,7.43
2019-04-14T09:40:34.983Z,7.17
2019-04-14T09:43:06.163Z,7.87
2019-04-14T09:45:37.359Z,7.23
2019-04-14T09:48:08.623Z,8.20
2019-04-14T09:50:39.972Z,7.00
2019-04-14T09:53:11.144Z,7.27
2019-04-14T09:55:41.671Z,9.00
2019-04-14T09:58:11.929Z,8.73
2019-04-14T10:00:43.012Z,6.57
2019-04-14T10:03:14.189Z,6.57
2019-04-14T10:05:45.391Z,6.23
2019-04-14T10:08:16.541Z,5.07
2019-04-14T10:10:47.699Z,6.27
2019-04-14T10:13:19.167Z,6.10
2019-04-14T10:15:50.419Z,6.30
2019-04-14T10:18:21.530Z,5.90
2019-04-14T10:20:52.663Z,6.03
2019-04-14T10:23:23.867Z,5.17
2019-04-14T10:25:55.568Z,5.47
2019-04-14T10:28:26.734Z,5.62
2019-04-14T10:30:57.890Z,6.37
2019-04-14T10:33:28.996Z,5.67
2019-04-14T10:36:00.599Z,4.75
2019-04-14T10:38:32.445Z,4.50
2019-04-14T10:41:03.503Z,5.55
2019-04-14T10:43:35.327Z,4.75
2019-04-14T10:46:07.333Z,5.78
2019-04-14T10:48:39.142Z,5.85
2019-04-14T10:51:10.089Z,5.12
2019-04-14T10:53:41.634Z,5.70
2019-04-14T10:56:13.456Z,5.58
2019-04-14T10:58:45.587Z,5.87
2019-04-14T11:01:17.384Z,5.40
2019-04-14T11:03:49.178Z,6.17
2019-04-14T11:06:48.615Z,5.92
2019-04-14T11:09:20.367Z,5.70
2019-04-14T11:11:51.442Z,5.70
2019-04-14T11:14:23.379Z,6.03
2019-04-14T11:16:55.843Z,5.70
2019-04-14T11:19:27.615Z,6.17
2019-04-14T11:21:59.399Z,4.92
2019-04-14T11:24:31.123Z,5.20
2019-04-14T11:27:02.915Z,5.83
2019-04-14T11:29:34.643Z,5.70
2019-04-14T11:32:40.382Z,5.40
2019-04-14T11:35:24.743Z,5.70
2019-04-14T11:38:13.768Z,6.83
2019-04-14T11:40:50.296Z,5.28
2019-04-14T11:43:22.071Z,5.35
2019-04-14T11:45:53.802Z,5.45
2019-04-14T11:48:25.737Z,5.08
2019-04-14T11:50:56.730Z,6.05
2019-04-14T11:53:29.279Z,5.20
2019-04-14T11:56:01.039Z,5.20
2019-04-14T11:58:32.815Z,4.83
2019-04-14T12:01:16.895Z,5.22
2019-04-14T12:04:01.738Z,5.10
2019-04-14T12:06:51.236Z,5.40
2019-04-14T12:09:44.611Z,5.12
2019-04-14T12:12:16.311Z,5.40
2019-04-14T12:14:48.379Z,5.25
2019-04-14T12:17:20.131Z,5.20
2019-04-14T12:19:52.403Z,5.00
2019-04-14T12:22:24.182Z,5.08
2019-04-14T12:24:55.973Z,5.75
2019-04-14T12:27:27.783Z,4.97
2019-04-14T12:29:59.573Z,4.95
2019-04-14T12:32:31.316Z,4.97
2019-04-14T12:35:02.293Z,5.17
2019-04-14T12:37:33.803Z,5.20
2019-04-14T12:40:05.041Z,5.70
2019-04-14T12:42:54.283Z,5.15
2019-04-14T12:45:44.906Z,4.85
2019-04-14T12:48:22.920Z,4.97
2019-04-14T12:51:01.130Z,4.95
2019-04-14T12:53:34.015Z,5.12
2019-04-14T12:56:05.015Z,4.62
2019-04-14T12:59:04.635Z,5.10
2019-04-14T13:01:40.631Z,5.10
2019-04-14T13:04:11.730Z,4.92
2019-04-14T13:06:43.327Z,5.35
2019-04-14T13:09:15.105Z,4.90
2019-04-14T13:11:46.199Z,4.65
2019-04-14T13:14:17.901Z,4.62
2019-04-14T13:16:50.084Z,6.85
2019-04-14T13:19:22.111Z,5.50
2019-04-14T13:21:54.025Z,5.08
2019-04-14T13:24:26.260Z,5.22
2019-04-14T13:26:58.189Z,4.95
2019-04-14T13:29:29.239Z,5.20
2019-04-14T13:32:00.983Z,5.55
2019-04-14T13:34:33.076Z,6.05
2019-04-14T13:37:04.252Z,5.50
2019-04-14T13:39:36.822Z,5.42
2019-04-14T13:42:08.904Z,5.25
2019-04-14T13:44:40.763Z,4.70
2019-04-14T13:47:12.491Z,5.10
2019-04-14T13:49:44.703Z,4.25
2019-04-14T13:52:16.435Z,4.75
2019-04-14T13:54:48.184Z,4.50
2019-04-14T13:57:19.948Z,4.65
2019-04-14T13:59:51.721Z,4.25
2019-04-14T14:02:23.577Z,4.65
2019-04-14T14:04:55.316Z,4.85
2019-04-14T14:07:27.091Z,4.67
2019-04-14T14:09:58.889Z,4.40
2019-04-14T14:12:35.815Z,4.65
2019-04-14T14:15:24.852Z,4.08
2019-04-14T14:18:10.363Z,4.55
2019-04-14T14:21:01.611Z,4.22
2019-04-14T14:23:55.007Z,4.28
2019-04-14T14:26:27.743Z,4.62
2019-04-14T14:28:59.487Z,4.53
2019-04-14T14:31:31.251Z,4.42
2019-04-14T14:34:03.051Z,4.03
2019-04-14T14:36:34.079Z,4.10
2019-04-14T14:39:08.952Z,4.30
2019-04-14T14:41:40.150Z,3.90
2019-04-14T14:44:11.621Z,4.40
2019-04-14T14:47:17.479Z,4.37
2019-04-14T14:50:23.435Z,4.70
2019-04-14T14:52:55.256Z,4.00
2019-04-14T14:55:26.234Z,4.53
2019-04-14T14:57:57.845Z,4.30
2019-04-14T15:00:32.886Z,4.40
2019-04-14T15:03:04.656Z,3.80
2019-04-14T15:05:37.331Z,4.28
2019-04-14T15:08:08.303Z,3.98
2019-04-14T15:10:39.838Z,4.12
2019-04-14T15:13:11.699Z,3.65
2019-04-14T15:15:43.447Z,3.40
2019-04-14T15:18:15.123Z,3.62
2019-04-14T15:20:46.870Z,4.15
2019-04-14T15:23:24.918Z,4.05
2019-04-14T15:25:52.058Z,3.60
2019-04-14T15:28:23.711Z,3.80
2019-04-14T15:30:55.443Z,3.85
2019-04-14T15:33:27.223Z,3.52
2019-04-14T15:35:58.944Z,3.65
2019-04-14T15:38:29.927Z,3.15
2019-04-14T15:41:00.939Z,3.37
2019-04-14T15:43:32.192Z,3.77
2019-04-14T15:46:02.746Z,3.90
2019-04-14T15:48:34.279Z,3.60
2019-04-14T15:51:06.119Z,3.52
2019-04-14T15:53:38.563Z,3.45
2019-04-14T15:56:11.138Z,3.52
2019-04-14T15:58:53.307Z,3.40
2019-04-14T16:01:46.333Z,3.20
2019-04-14T16:04:21.719Z,3.50
2019-04-14T16:07:09.524Z,3.17
2019-04-14T16:09:45.420Z,3.23
2019-04-14T16:12:33.627Z,2.90
2019-04-14T16:18:07.847Z,2.60
2019-04-14T16:20:40.911Z,2.80
2019-04-14T16:23:11.514Z,3.10
2019-04-14T16:25:55.090Z,2.93
2019-04-14T16:28:43.891Z,3.27
2019-04-14T16:31:32.680Z,2.97
2019-04-14T16:34:15.969Z,2.60
2019-04-14T16:36:47.455Z,3.03
2019-04-14T16:39:18.669Z,2.70
2019-04-14T16:41:50.227Z,2.60
2019-04-14T16:44:21.566Z,2.40
2019-04-14T16:46:53.984Z,2.83
2019-04-14T16:49:25.412Z,2.93
2019-04-14T16:52:18.443Z,2.70
2019-04-14T16:55:20.555Z,2.73
2019-04-14T16:58:09.827Z,2.40
2019-04-14T17:00:43.800Z,2.30
2019-04-14T17:03:14.363Z,2.23
2019-04-14T17:05:45.672Z,2.63
2019-04-14T17:08:17.875Z,2.73
2019-04-14T17:10:49.099Z,2.70
2019-04-14T17:13:23.429Z,3.00
2019-04-14T17:16:20.662Z,3.27
2019-04-14T17:19:13.987Z,2.90
2019-04-14T17:22:06.783Z,3.37
2019-04-14T17:25:09.001Z,3.50
2019-04-14T17:28:02.791Z,3.40
2019-04-14T17:31:00.348Z,2.60
2019-04-14T17:33:38.643Z,3.20
2019-04-14T17:36:34.751Z,3.13
2019-04-14T17:39:19.196Z,3.27
2019-04-14T17:42:09.260Z,3.10
2019-04-14T17:44:48.215Z,3.70
2019-04-14T17:47:42.955Z,3.60
2019-04-14T17:50:41.243Z,3.57
2019-04-14T17:53:21.799Z,3.80
2019-04-14T17:56:15.784Z,4.40
2019-04-14T17:59:18.142Z,4.33
2019-04-14T18:01:57.559Z,3.30
2019-04-14T18:04:40.463Z,3.67
2019-04-14T18:07:16.677Z,3.57
2019-04-14T18:10:05.537Z,3.80
2019-04-14T18:12:55.695Z,4.27
2019-04-14T18:15:36.600Z,4.90
2019-04-14T18:18:20.727Z,4.03
2019-04-14T18:20:55.481Z,3.87
2019-04-14T18:23:26.591Z,3.33
2019-04-14T18:25:57.819Z,3.37
2019-04-14T18:28:47.359Z,3.40
2019-04-14T18:31:32.475Z,3.57
2019-04-14T18:34:15.343Z,3.37
2019-04-14T18:37:06.355Z,3.63
2019-04-14T18:39:55.291Z,3.30
2019-04-14T18:42:47.654Z,4.17
2019-04-14T18:45:42.752Z,4.10
2019-04-14T18:48:30.896Z,4.10
2019-04-14T18:51:29.943Z,3.83
2019-04-14T18:54:16.412Z,4.10
2019-04-14T18:57:06.555Z,3.40
2019-04-14T18:59:52.194Z,4.67
2019-04-14T19:02:23.400Z,6.53
2019-04-14T19:04:54.532Z,8.60
2019-04-14T19:07:25.975Z,8.87
2019-04-14T19:09:57.251Z,7.93
2019-04-14T19:12:50.151Z,6.70
2019-04-14T19:15:29.817Z,4.93
2019-04-14T19:18:29.127Z,4.93
2019-04-14T19:21:03.818Z,3.67
2019-04-14T19:23:35.153Z,3.90
2019-04-14T19:26:06.599Z,4.10
2019-04-14T19:28:37.658Z,3.40
2019-04-14T19:31:08.703Z,4.03
2019-04-14T19:33:39.953Z,4.30
2019-04-14T19:36:11.150Z,4.33
2019-04-14T19:38:42.271Z,4.60
2019-04-14T19:41:12.999Z,4.23
2019-04-14T19:43:43.267Z,5.23
2019-04-14T19:46:15.311Z,5.00
2019-04-14T19:48:46.529Z,5.40
2019-04-14T19:51:16.804Z,5.03
2019-04-14T19:53:47.751Z,4.90
2019-04-14T19:56:18.271Z,5.50
2019-04-14T19:58:50.487Z,4.90
2019-04-14T20:01:22.691Z,5.23
2019-04-14T20:03:53.859Z,4.47
2019-04-14T20:06:24.223Z,4.70
2019-04-14T20:08:55.223Z,5.60
2019-04-14T20:11:26.339Z,5.50
2019-04-14T20:13:57.631Z,5.40
2019-04-14T20:16:56.798Z,6.27
2019-04-14T20:20:05.349Z,6.40
2019-04-14T20:22:55.597Z,6.40
2019-04-14T20:25:44.503Z,6.37
2019-04-14T20:28:22.478Z,6.13
2019-04-14T20:31:04.199Z,6.43
2019-04-14T20:33:35.527Z,6.07
2019-04-14T20:36:06.799Z,6.50
2019-04-14T20:38:38.006Z,6.60
2019-04-14T20:41:09.027Z,7.20
2019-04-14T20:43:40.211Z,7.03
2019-04-14T20:46:11.379Z,7.37
2019-04-14T20:48:42.591Z,6.60
2019-04-14T20:51:13.731Z,6.60
2019-04-14T20:53:45.906Z,6.77
2019-04-14T20:56:18.067Z,7.00
2019-04-14T20:58:49.531Z,7.30
2019-04-14T21:01:21.791Z,6.60
2019-04-14T21:04:20.383Z,7.67
2019-04-14T21:07:10.560Z,6.90
2019-04-14T21:09:56.307Z,7.43
2019-04-14T21:12:56.573Z,6.57
2019-04-14T21:15:38.943Z,7.03
2019-04-14T21:18:40.670Z,7.20
2019-04-14T21:21:42.693Z,7.20
2019-04-14T21:24:35.883Z,7.07
2019-04-14T21:27:29.013Z,7.07
2019-04-14T21:30:14.952Z,6.50
2019-04-14T21:32:54.283Z,6.57
2019-04-14T21:35:43.196Z,6.97
2019-04-14T21:38:22.283Z,7.27
2019-04-14T21:40:59.781Z,7.80
2019-04-14T21:43:31.011Z,7.50
2019-04-14T21:46:02.195Z,7.13
2019-04-14T21:48:33.417Z,7.40
2019-04-14T21:51:04.679Z,6.37
2019-04-14T21:53:35.791Z,7.07
2019-04-14T21:56:13.239Z,7.17
2019-04-14T21:59:13.539Z,7.30
2019-04-14T22:02:21.879Z,6.60
2019-04-14T22:05:20.978Z,6.20
2019-04-14T22:08:03.272Z,6.77
2019-04-14T22:10:38.575Z,7.17
2019-04-14T22:13:09.659Z,6.37
2019-04-14T22:15:40.769Z,7.37
2019-04-14T22:18:11.951Z,7.07
2019-04-14T22:20:43.151Z,7.60
2019-04-14T22:23:14.335Z,7.27
2019-04-14T22:25:45.550Z,6.97
2019-04-14T22:28:16.724Z,7.80
2019-04-14T22:30:48.855Z,7.07
2019-04-14T22:33:20.511Z,7.20
2019-04-14T22:35:51.459Z,7.47
2019-04-14T22:38:22.506Z,6.77
2019-04-14T22:40:53.635Z,6.97
2019-04-14T22:43:25.200Z,7.17
2019-04-14T22:45:56.676Z,6.90
2019-04-14T22:48:33.734Z,7.03
2019-04-14T22:51:04.891Z,7.07
2019-04-14T22:53:36.076Z,6.80
2019-04-14T22:56:10.858Z,7.00
2019-04-14T22:58:42.331Z,7.30
2019-04-14T23:01:19.830Z,6.97
2019-04-14T23:04:08.475Z,7.33
2019-04-14T23:06:57.083Z,6.67
2019-04-14T23:09:50.261Z,6.90
2019-04-14T23:12:45.719Z,7.37
2019-04-14T23:15:34.535Z,7.30
2019-04-14T23:18:14.199Z,6.90
2019-04-14T23:21:04.360Z,7.00
2019-04-14T23:23:42.702Z,6.80
2019-04-14T23:26:14.135Z,6.67
2019-04-14T23:28:45.740Z,7.17
2019-04-14T23:31:16.931Z,6.43
2019-04-14T23:33:50.767Z,7.70
2019-04-14T23:36:21.150Z,7.00
2019-04-14T23:38:52.124Z,7.30
2019-04-14T23:41:22.584Z,7.40
2019-04-14T23:43:53.584Z,7.07
2019-04-14T23:46:24.851Z,7.57
2019-04-14T23:48:57.372Z,7.10
2019-04-14T23:51:29.618Z,7.73
2019-04-14T23:54:00.715Z,6.87
2019-04-14T23:56:32.095Z,7.63
2019-04-14T23:59:03.334Z,8.60
